Time;durP1;ratioP1;P1;durP2;ratioP2;P2;SDS_P1;SDS_P2;PMS_P1;PMS_P2;Temp;Humidity;BMP_temperature;BMP_pressure;BME280_temperature;BME280_humidity;BME280_pressure;Samples;Min_cycle;Max_cycle;Signal;HPM_P1;HPM_P2
2021/10/06 00:01:05;;;;;;;11.10;5.43;;;11.30;99.90;;;;;;4892637;29;20044;-87
2021/10/06 00:03:31;;;;;;;10.60;6.05;;;11.40;99.90;;;;;;4851403;29;20047;-84
2021/10/06 00:05:58;;;;;;;12.23;5.70;;;11.40;99.90;;;;;;4864811;29;20610;-86
2021/10/06 00:08:44;;;;;;;15.50;4.68;;;11.30;99.90;;;;;;4864946;29;20052;-84
2021/10/06 00:11:15;;;;;;;8.02;4.78;;;11.30;99.90;;;;;;4882838;29;20056;-86
2021/10/06 00:13:50;;;;;;;10.20;4.75;;;11.30;99.90;;;;;;4852488;29;20049;-85
2021/10/06 00:16:16;;;;;;;15.07;5.10;;;11.30;99.90;;;;;;4884335;29;20117;-85
2021/10/06 00:18:43;;;;;;;13.32;5.10;;;11.30;99.90;;;;;;4867641;29;20052;-88
2021/10/06 00:21:09;;;;;;;7.72;4.28;;;11.30;99.90;;;;;;4861887;29;20063;-84
2021/10/06 00:23:35;;;;;;;9.32;4.25;;;11.30;99.90;;;;;;4884042;29;20048;-85
2021/10/06 00:26:03;;;;;;;10.90;4.95;;;11.30;99.90;;;;;;4857568;29;20112;-87
2021/10/06 00:28:33;;;;;;;9.35;4.03;;;11.30;99.90;;;;;;4859230;29;20083;-87
2021/10/06 00:31:00;;;;;;;5.95;4.30;;;11.30;99.90;;;;;;4862644;29;20076;-87
2021/10/06 00:33:34;;;;;;;10.13;4.55;;;11.20;99.90;;;;;;4877464;29;20132;-87
2021/10/06 00:36:00;;;;;;;7.20;4.35;;;11.20;99.90;;;;;;4864254;29;20127;-84
2021/10/06 00:38:26;;;;;;;11.07;4.70;;;11.30;99.90;;;;;;4852561;29;20312;-86
2021/10/06 00:40:53;;;;;;;9.77;4.30;;;11.20;99.90;;;;;;4881215;29;20080;-87
2021/10/06 00:43:20;;;;;;;6.45;4.43;;;11.20;99.90;;;;;;4866514;29;20511;-85
2021/10/06 00:45:46;;;;;;;10.30;3.67;;;11.20;99.90;;;;;;4863185;29;20108;-86
2021/10/06 00:48:12;;;;;;;9.00;4.18;;;11.10;99.90;;;;;;4863004;29;20324;-85
2021/10/06 00:50:38;;;;;;;10.40;4.25;;;11.10;99.90;;;;;;4846456;29;20040;-87
2021/10/06 00:53:05;;;;;;;7.97;3.95;;;11.20;99.90;;;;;;4879413;29;20542;-86
2021/10/06 00:55:44;;;;;;;8.55;4.00;;;11.10;99.90;;;;;;4875267;29;20068;-87
2021/10/06 00:58:13;;;;;;;9.77;4.25;;;11.20;99.90;;;;;;4879130;29;20112;-87
2021/10/06 01:00:39;;;;;;;13.43;4.50;;;11.20;99.90;;;;;;4894020;29;20123;-86
2021/10/06 01:03:05;;;;;;;9.32;4.03;;;11.10;99.90;;;;;;4860488;29;20410;-85
2021/10/06 01:05:36;;;;;;;8.30;4.32;;;11.10;99.90;;;;;;4834207;29;20052;-86
2021/10/06 01:08:04;;;;;;;9.27;4.53;;;11.10;99.90;;;;;;4876316;29;21279;-87
2021/10/06 01:10:36;;;;;;;10.00;4.18;;;11.10;99.90;;;;;;4861095;29;20049;-85
2021/10/06 01:13:05;;;;;;;12.52;4.20;;;11.10;99.90;;;;;;4845278;29;20511;-88
2021/10/06 01:15:31;;;;;;;13.52;4.40;;;11.10;99.90;;;;;;4863242;29;20407;-85
2021/10/06 01:17:57;;;;;;;9.27;4.30;;;11.10;99.90;;;;;;4845047;29;20043;-86
2021/10/06 01:20:23;;;;;;;7.82;4.05;;;11.00;99.90;;;;;;4857230;29;20143;-86
2021/10/06 01:22:49;;;;;;;7.20;3.80;;;11.00;99.90;;;;;;4857507;29;20151;-86
2021/10/06 01:25:16;;;;;;;6.47;4.22;;;11.00;99.90;;;;;;4858717;29;20139;-88
2021/10/06 01:27:43;;;;;;;7.50;4.05;;;11.00;99.90;;;;;;4861438;29;20065;-87
2021/10/06 01:30:12;;;;;;;8.73;3.90;;;11.00;99.90;;;;;;4863835;29;20052;-87
2021/10/06 01:32:40;;;;;;;9.10;4.43;;;11.00;99.90;;;;;;4862667;29;20041;-87
2021/10/06 01:35:09;;;;;;;9.50;4.13;;;11.00;99.90;;;;;;4857578;29;20052;-87
2021/10/06 01:37:35;;;;;;;8.40;4.22;;;11.00;99.90;;;;;;4875849;29;20045;-88
2021/10/06 01:40:04;;;;;;;8.02;4.18;;;11.00;99.90;;;;;;4862561;29;20060;-87
2021/10/06 01:42:31;;;;;;;7.53;3.78;;;11.00;99.90;;;;;;4855476;29;20116;-86
2021/10/06 01:44:56;;;;;;;12.48;4.57;;;10.90;99.90;;;;;;4853572;29;20048;-86
2021/10/06 01:47:25;;;;;;;8.45;3.97;;;11.00;99.90;;;;;;4877698;29;20045;-88
2021/10/06 01:49:51;;;;;;;9.73;4.22;;;11.00;99.90;;;;;;4861365;29;20037;-85
2021/10/06 01:52:23;;;;;;;8.98;3.22;;;11.00;99.90;;;;;;4875138;29;20136;-85
2021/10/06 01:54:50;;;;;;;9.32;3.95;;;11.00;99.90;;;;;;4857301;29;20504;-85
2021/10/06 01:57:16;;;;;;;8.50;4.32;;;11.00;99.90;;;;;;4865033;29;20044;-86
2021/10/06 01:59:46;;;;;;;9.50;3.60;;;11.00;99.90;;;;;;4860582;29;20530;-85
2021/10/06 02:02:13;;;;;;;7.63;3.58;;;11.00;99.90;;;;;;4879276;29;20745;-87
2021/10/06 02:04:41;;;;;;;9.45;4.18;;;11.00;99.90;;;;;;4871255;29;20078;-86
2021/10/06 02:07:11;;;;;;;8.00;4.45;;;11.00;99.90;;;;;;4860768;29;20032;-87
2021/10/06 02:09:37;;;;;;;9.70;4.65;;;10.90;99.90;;;;;;4847179;29;20040;-86
2021/10/06 02:12:04;;;;;;;7.90;4.50;;;11.00;99.90;;;;;;4860819;29;20056;-86
2021/10/06 02:14:30;;;;;;;7.15;4.40;;;11.00;99.90;;;;;;4861349;29;20737;-87
2021/10/06 02:16:56;;;;;;;6.93;4.57;;;10.90;99.90;;;;;;4847952;29;20044;-87
2021/10/06 02:19:21;;;;;;;8.48;4.70;;;10.90;99.90;;;;;;4847169;29;20048;-86
2021/10/06 02:21:47;;;;;;;12.60;5.15;;;10.90;99.90;;;;;;4873556;29;20041;-86
2021/10/06 02:24:13;;;;;;;8.07;5.10;;;10.90;99.90;;;;;;4847314;29;20522;-87
2021/10/06 02:26:40;;;;;;;11.45;5.13;;;10.90;99.90;;;;;;4848747;29;20032;-88
2021/10/06 02:29:06;;;;;;;12.43;5.10;;;10.90;99.90;;;;;;4847983;29;20053;-86
2021/10/06 02:31:34;;;;;;;12.75;5.47;;;10.90;99.90;;;;;;4876105;29;20053;-85
2021/10/06 02:34:00;;;;;;;12.35;5.95;;;10.90;99.90;;;;;;4849035;29;21488;-86
2021/10/06 02:36:26;;;;;;;8.13;5.80;;;10.90;99.90;;;;;;4848683;29;20041;-87
2021/10/06 02:38:52;;;;;;;7.82;4.93;;;10.90;99.90;;;;;;4845825;29;20119;-87
2021/10/06 02:41:18;;;;;;;11.73;6.13;;;10.90;99.90;;;;;;4848086;29;20424;-85
2021/10/06 02:43:43;;;;;;;13.98;5.72;;;10.90;99.90;;;;;;4845409;29;20587;-86
2021/10/06 02:46:09;;;;;;;8.65;5.45;;;10.90;99.90;;;;;;4848082;29;20115;-86
2021/10/06 02:48:35;;;;;;;12.15;5.95;;;10.80;99.90;;;;;;4847851;29;20522;-88
2021/10/06 02:51:01;;;;;;;9.73;6.13;;;10.80;99.90;;;;;;4867297;29;20053;-86
2021/10/06 02:53:26;;;;;;;13.23;6.20;;;10.80;99.90;;;;;;4861114;29;20125;-88
2021/10/06 02:55:52;;;;;;;13.85;6.43;;;10.80;99.90;;;;;;4846764;29;20037;-86
2021/10/06 02:58:18;;;;;;;8.30;5.95;;;10.70;99.90;;;;;;4849379;29;20041;-85
2021/10/06 03:00:44;;;;;;;13.45;5.85;;;10.70;99.90;;;;;;4845958;29;20281;-87
2021/10/06 03:03:09;;;;;;;16.08;5.72;;;10.70;99.90;;;;;;4846274;29;20040;-86
2021/10/06 03:05:35;;;;;;;11.15;5.82;;;10.70;99.90;;;;;;4862433;29;20058;-87
2021/10/06 03:08:01;;;;;;;11.93;5.63;;;10.70;99.90;;;;;;4862931;29;20403;-83
2021/10/06 03:10:27;;;;;;;10.13;5.90;;;10.70;99.90;;;;;;4861429;29;20044;-85
2021/10/06 03:12:52;;;;;;;15.82;6.72;;;10.70;99.90;;;;;;4860229;29;20141;-86
2021/10/06 03:15:18;;;;;;;12.95;5.40;;;10.70;99.90;;;;;;4851087;29;20033;-86
2021/10/06 03:17:44;;;;;;;9.98;4.97;;;10.70;99.90;;;;;;4865604;29;20032;-85
2021/10/06 03:20:11;;;;;;;11.88;5.50;;;10.70;99.90;;;;;;4848951;29;20070;-85
2021/10/06 03:22:39;;;;;;;9.32;5.72;;;10.80;99.90;;;;;;4850895;29;20641;-86
2021/10/06 03:25:11;;;;;;;14.77;6.60;;;10.80;99.90;;;;;;4865757;29;20040;-84
2021/10/06 03:27:37;;;;;;;10.98;6.15;;;10.80;99.90;;;;;;4861357;29;20070;-86
2021/10/06 03:30:07;;;;;;;13.60;6.53;;;10.80;99.90;;;;;;4849277;29;20129;-85
2021/10/06 03:32:33;;;;;;;13.15;6.13;;;10.70;99.90;;;;;;4876106;29;20494;-86
2021/10/06 03:34:59;;;;;;;13.52;7.00;;;10.70;99.90;;;;;;4863284;29;20041;-84
2021/10/06 03:37:28;;;;;;;12.30;6.30;;;10.80;99.90;;;;;;4866107;29;20507;-83
2021/10/06 03:39:54;;;;;;;13.18;5.97;;;10.80;99.90;;;;;;4854335;29;20045;-87
2021/10/06 03:42:20;;;;;;;15.23;6.63;;;10.80;99.90;;;;;;4859360;29;20036;-86
2021/10/06 03:44:48;;;;;;;14.70;6.53;;;10.80;99.90;;;;;;4879984;29;20040;-86
2021/10/06 03:47:14;;;;;;;12.90;6.97;;;10.80;99.90;;;;;;4851654;29;20043;-87
2021/10/06 03:49:40;;;;;;;14.95;7.05;;;10.80;99.90;;;;;;4864805;29;20473;-87
2021/10/06 03:52:05;;;;;;;15.30;6.88;;;10.80;99.90;;;;;;4863377;29;20100;-85
2021/10/06 03:54:31;;;;;;;13.07;6.28;;;10.90;99.90;;;;;;4865596;29;20041;-87
2021/10/06 03:56:57;;;;;;;14.82;5.88;;;10.90;99.90;;;;;;4879718;29;20072;-87
2021/10/06 03:59:23;;;;;;;12.52;5.80;;;10.90;99.90;;;;;;4852270;29;20067;-87
2021/10/06 04:01:49;;;;;;;12.15;5.70;;;10.90;99.90;;;;;;4880883;29;20032;-87
2021/10/06 04:04:15;;;;;;;14.57;5.47;;;10.90;99.90;;;;;;4865014;29;20063;-85
2021/10/06 04:06:41;;;;;;;9.65;5.00;;;11.00;99.90;;;;;;4869940;29;20605;-87
2021/10/06 04:09:07;;;;;;;9.68;4.80;;;11.00;99.90;;;;;;4851922;29;20555;-87
2021/10/06 04:11:33;;;;;;;11.20;5.13;;;11.00;99.90;;;;;;4876051;29;20085;-85
2021/10/06 04:13:59;;;;;;;11.45;4.78;;;11.10;99.90;;;;;;4864060;29;20657;-85
2021/10/06 04:16:24;;;;;;;8.90;4.30;;;11.10;99.90;;;;;;4850379;29;20076;-87
2021/10/06 04:18:51;;;;;;;6.13;4.47;;;11.10;99.90;;;;;;4853045;29;20405;-87
2021/10/06 04:21:17;;;;;;;8.38;4.47;;;11.00;99.90;;;;;;4849528;29;20175;-83
2021/10/06 04:23:42;;;;;;;9.38;4.25;;;11.00;99.90;;;;;;4849686;29;20044;-86
2021/10/06 04:26:11;;;;;;;6.25;3.72;;;11.00;99.90;;;;;;4847819;29;20051;-87
2021/10/06 04:28:37;;;;;;;8.35;4.07;;;11.00;99.90;;;;;;4852820;29;20059;-89
2021/10/06 04:31:03;;;;;;;9.57;4.40;;;11.00;99.90;;;;;;4870469;29;20547;-83
2021/10/06 04:33:29;;;;;;;8.05;3.85;;;11.00;99.90;;;;;;4835032;29;20049;-85
2021/10/06 04:35:55;;;;;;;8.27;4.05;;;11.00;99.90;;;;;;4852774;29;20059;-87
2021/10/06 04:38:20;;;;;;;7.60;3.80;;;11.00;99.90;;;;;;4843746;29;20525;-84
2021/10/06 04:40:46;;;;;;;8.68;4.50;;;11.00;99.90;;;;;;4841496;29;20037;-85
2021/10/06 04:43:12;;;;;;;15.68;5.28;;;11.10;99.90;;;;;;4841333;29;20072;-84
2021/10/06 04:45:39;;;;;;;8.15;5.65;;;11.10;99.90;;;;;;4869823;29;20606;-85
2021/10/06 04:48:05;;;;;;;11.27;6.38;;;11.10;99.90;;;;;;4858634;29;20155;-85
2021/10/06 04:50:31;;;;;;;17.65;6.95;;;11.00;99.90;;;;;;4857713;29;20044;-87
2021/10/06 04:52:57;;;;;;;17.08;7.47;;;11.00;99.90;;;;;;4867992;29;20483;-87
2021/10/06 04:55:23;;;;;;;10.73;6.90;;;10.90;99.90;;;;;;4852249;29;20033;-87
2021/10/06 04:57:49;;;;;;;13.73;8.00;;;10.90;99.90;;;;;;4853543;29;20522;-87
2021/10/06 05:00:15;;;;;;;13.10;7.78;;;10.90;99.90;;;;;;4834603;29;20064;-86
2021/10/06 05:43:37;;;;;;;23.45;7.90;;;10.80;99.90;;;;;;5073954;23;20412;-92
2021/10/06 05:49:51;;;;;;;;;;;;;;;;;;;;;
2021/10/06 06:07:16;;;;;;;12.55;6.88;;;10.80;99.90;;;;;;4803315;29;20034;-94
2021/10/06 06:10:25;;;;;;;12.35;7.00;;;10.70;99.90;;;;;;4829846;29;20549;-94
2021/10/06 06:27:33;;;;;;;13.10;6.50;;;10.80;99.90;;;;;;4849433;29;20090;-94
2021/10/06 06:30:42;;;;;;;;;;;;;;;;;;;;;
2021/10/06 06:34:05;;;;;;;10.18;5.70;;;10.70;99.90;;;;;;4770218;29;20055;-92
2021/10/06 06:36:53;;;;;;;15.20;6.00;;;10.70;99.90;;;;;;4784319;29;20042;-93
2021/10/06 06:39:36;;;;;;;7.50;5.45;;;10.70;99.90;;;;;;4791110;29;20133;-93
2021/10/06 06:42:26;;;;;;;14.02;5.10;;;10.70;99.90;;;;;;4807915;29;20042;-93
2021/10/06 07:04:03;;;;;;;8.85;4.38;;;10.80;99.90;;;;;;4872207;29;20143;-94
2021/10/06 08:11:35;;;;;;;12.90;6.50;;;10.90;99.90;;;;;;4836894;29;20457;-93
2021/10/06 08:14:51;;;;;;;;;;;;;;;;;;;;;
2021/10/06 08:17:30;;;;;;;12.38;7.15;;;10.80;99.90;;;;;;4821188;29;20314;-92
2021/10/06 08:20:23;;;;;;;14.38;7.13;;;10.80;99.90;;;;;;4819523;29;20122;-94
2021/10/06 08:23:50;;;;;;;16.05;7.53;;;10.90;99.90;;;;;;4832039;29;20134;-94
2021/10/06 08:26:55;;;;;;;10.93;6.00;;;10.90;99.90;;;;;;4824256;29;20430;-93
2021/10/06 08:29:55;;;;;;;14.38;6.57;;;10.90;99.90;;;;;;4814340;29;20046;-93
2021/10/06 09:13:07;;;;;;;11.63;5.80;;;10.90;99.90;;;;;;4878508;29;20068;-92
2021/10/06 09:34:46;;;;;;;;;;;;;;;;;;;;;
2021/10/06 09:37:58;;;;;;;13.65;7.13;;;11.00;99.90;;;;;;4851917;29;20041;-92
2021/10/06 09:41:08;;;;;;;;;;;;;;;;;;;;;
2021/10/06 09:47:42;;;;;;;;;;;;;;;;;;;;;
2021/10/06 09:54:13;;;;;;;11.57;7.07;;;11.20;99.90;;;;;;4773613;30;20047;-93
2021/10/06 17:17:16;;;;;;;6.28;3.78;;;13.40;99.90;;;;;;4884349;29;20044;-86
2021/10/06 17:19:42;;;;;;;11.23;3.33;;;13.40;99.90;;;;;;4865692;29;20041;-86
2021/10/06 17:22:09;;;;;;;6.90;3.15;;;13.40;99.90;;;;;;4856709;29;20111;-85
2021/10/06 17:24:34;;;;;;;11.38;3.63;;;13.40;99.90;;;;;;4852788;29;20045;-85
2021/10/06 17:27:00;;;;;;;6.43;3.28;;;13.30;99.90;;;;;;4852019;29;20053;-86
2021/10/06 17:29:27;;;;;;;7.32;2.97;;;13.20;99.90;;;;;;4851747;29;20041;-86
2021/10/06 17:31:53;;;;;;;5.80;2.80;;;13.20;99.90;;;;;;4859093;29;20484;-87
2021/10/06 17:34:19;;;;;;;5.40;3.05;;;13.20;99.90;;;;;;4863642;29;20036;-84
2021/10/06 17:36:45;;;;;;;7.18;3.55;;;13.10;99.90;;;;;;4852799;29;20092;-85
2021/10/06 17:39:11;;;;;;;4.35;3.40;;;13.10;99.90;;;;;;4863522;29;20140;-85
2021/10/06 17:41:40;;;;;;;5.57;3.45;;;13.00;99.90;;;;;;4851188;29;20123;-85
2021/10/06 17:44:07;;;;;;;6.72;3.97;;;13.00;99.90;;;;;;4853469;29;20053;-85
2021/10/06 17:46:33;;;;;;;9.57;4.05;;;12.90;99.90;;;;;;4881402;29;20045;-86
2021/10/06 17:49:02;;;;;;;7.60;3.60;;;12.90;99.90;;;;;;4880689;29;20036;-85
2021/10/06 17:51:28;;;;;;;7.75;3.92;;;12.80;99.90;;;;;;4857917;29;20075;-82
2021/10/06 17:53:54;;;;;;;6.10;3.42;;;12.80;99.90;;;;;;4855617;29;20414;-84
2021/10/06 17:56:20;;;;;;;6.22;3.30;;;12.70;99.90;;;;;;4874974;29;20447;-85
2021/10/06 17:58:46;;;;;;;14.35;3.65;;;12.70;99.90;;;;;;4855402;29;20049;-85
2021/10/06 18:01:11;;;;;;;13.82;4.15;;;12.60;99.90;;;;;;4841664;29;20044;-84
2021/10/06 18:03:37;;;;;;;6.43;3.83;;;12.60;99.90;;;;;;4852083;29;20304;-85
2021/10/06 18:06:03;;;;;;;7.47;4.07;;;12.50;99.90;;;;;;4865023;29;20195;-85
2021/10/06 18:08:29;;;;;;;13.25;4.72;;;12.50;99.90;;;;;;4844746;29;20037;-84
2021/10/06 18:10:55;;;;;;;9.60;4.70;;;12.40;99.90;;;;;;4881688;29;20147;-85
2021/10/06 18:13:21;;;;;;;9.82;4.45;;;12.40;99.90;;;;;;4845755;29;20252;-83
2021/10/06 18:15:47;;;;;;;11.43;4.25;;;12.30;99.90;;;;;;4839967;29;20302;-84
2021/10/06 18:18:15;;;;;;;10.10;4.20;;;12.30;99.90;;;;;;4868507;29;20048;-85
2021/10/06 18:20:41;;;;;;;8.60;4.10;;;12.20;99.90;;;;;;4853761;29;20037;-85
2021/10/06 18:23:07;;;;;;;16.67;4.95;;;12.20;99.90;;;;;;4865064;29;20052;-85
2021/10/06 18:25:33;;;;;;;11.90;4.68;;;12.10;99.90;;;;;;4856700;29;20503;-85
2021/10/06 18:27:59;;;;;;;6.55;4.40;;;12.10;99.90;;;;;;4884830;29;20439;-85
2021/10/06 18:30:29;;;;;;;6.05;3.80;;;12.00;99.90;;;;;;4868034;29;20056;-83
2021/10/06 18:32:57;;;;;;;17.63;5.32;;;12.00;99.90;;;;;;4868595;29;20045;-85
2021/10/06 18:35:23;;;;;;;6.35;4.25;;;12.00;99.90;;;;;;4875957;29;21152;-85
2021/10/06 18:37:49;;;;;;;14.05;5.18;;;11.90;99.90;;;;;;4884944;29;20044;-85
2021/10/06 18:40:15;;;;;;;11.18;4.20;;;11.90;99.90;;;;;;4874023;29;20558;-85
2021/10/06 18:42:42;;;;;;;12.82;5.45;;;11.80;99.90;;;;;;4852571;29;20567;-84
2021/10/06 18:45:08;;;;;;;8.82;4.75;;;11.80;99.90;;;;;;4883458;29;20045;-85
2021/10/06 18:47:34;;;;;;;8.93;5.18;;;11.80;99.90;;;;;;4872450;29;20068;-85
2021/10/06 18:50:00;;;;;;;24.67;5.70;;;11.70;99.90;;;;;;4871913;29;20090;-85
2021/10/06 18:52:26;;;;;;;6.47;4.95;;;11.60;99.90;;;;;;4885599;29;20404;-84
2021/10/06 18:54:51;;;;;;;8.80;5.00;;;11.60;99.90;;;;;;4878569;29;20127;-85
2021/10/06 18:57:17;;;;;;;19.98;5.25;;;11.50;99.90;;;;;;4870098;29;20037;-84
2021/10/06 18:59:43;;;;;;;8.27;5.10;;;11.40;99.90;;;;;;4833611;29;20564;-84
2021/10/06 19:02:10;;;;;;;13.45;5.30;;;11.40;99.90;;;;;;4867199;29;20044;-84
2021/10/06 19:04:35;;;;;;;10.30;5.78;;;11.30;99.90;;;;;;4853255;29;20064;-84
2021/10/06 19:07:01;;;;;;;8.25;5.63;;;11.30;99.90;;;;;;4875100;29;20524;-85
2021/10/06 19:09:27;;;;;;;9.20;6.05;;;11.30;99.90;;;;;;4890550;29;20049;-84
2021/10/06 19:11:53;;;;;;;15.57;8.75;;;11.20;99.90;;;;;;4839695;29;20403;-84
2021/10/06 19:14:19;;;;;;;19.65;9.02;;;11.20;99.90;;;;;;4886269;29;20063;-83
2021/10/06 19:16:45;;;;;;;14.25;6.50;;;11.10;99.90;;;;;;4869554;29;20033;-85
2021/10/06 19:19:13;;;;;;;8.70;6.20;;;11.10;99.90;;;;;;4869106;29;20503;-85
2021/10/06 19:21:40;;;;;;;13.95;7.07;;;11.10;99.90;;;;;;4852798;29;20044;-85
2021/10/06 19:24:06;;;;;;;11.73;6.68;;;11.00;99.90;;;;;;4862905;29;20057;-85
2021/10/06 19:26:33;;;;;;;22.23;7.47;;;10.90;99.90;;;;;;4886784;29;20123;-84
2021/10/06 19:29:00;;;;;;;6.85;5.53;;;10.90;99.90;;;;;;4856598;29;20615;-84
2021/10/06 19:31:26;;;;;;;11.05;6.32;;;10.90;99.90;;;;;;4884307;29;20138;-85
2021/10/06 19:33:52;;;;;;;9.50;6.78;;;10.80;99.90;;;;;;4869607;29;20410;-85
2021/10/06 19:36:23;;;;;;;17.58;10.93;;;10.70;99.90;;;;;;4851138;29;20051;-86
2021/10/06 19:38:48;;;;;;;16.75;10.10;;;10.70;99.90;;;;;;4882716;29;20059;-85
2021/10/06 19:41:14;;;;;;;19.67;9.48;;;10.70;99.90;;;;;;4868341;29;20048;-85
2021/10/06 19:43:40;;;;;;;13.80;8.32;;;10.70;99.90;;;;;;4853190;29;20611;-83
2021/10/06 19:46:06;;;;;;;11.65;6.90;;;10.60;99.90;;;;;;4869111;29;20041;-85
2021/10/06 19:48:32;;;;;;;10.18;6.78;;;10.60;99.90;;;;;;4849619;29;20040;-84
2021/10/06 19:50:58;;;;;;;13.30;7.45;;;10.50;99.90;;;;;;4848681;29;20045;-84
2021/10/06 19:53:24;;;;;;;11.15;8.07;;;10.50;99.90;;;;;;4853827;29;20177;-85
2021/10/06 19:55:50;;;;;;;10.82;9.02;;;10.40;99.90;;;;;;4870236;29;20045;-83
2021/10/06 19:58:16;;;;;;;10.20;8.70;;;10.40;99.90;;;;;;4877183;29;20045;-85
2021/10/06 20:00:41;;;;;;;12.90;9.00;;;10.40;99.90;;;;;;4854514;29;20531;-85
2021/10/06 20:03:07;;;;;;;14.55;9.25;;;10.40;99.90;;;;;;4851844;29;20037;-84
2021/10/06 20:05:34;;;;;;;11.85;8.88;;;10.40;99.90;;;;;;4851991;29;20135;-85
2021/10/06 20:08:00;;;;;;;12.15;9.20;;;10.30;99.90;;;;;;4844757;29;20041;-85
2021/10/06 20:10:26;;;;;;;17.02;9.73;;;10.30;99.90;;;;;;4864193;29;20471;-84
2021/10/06 20:12:52;;;;;;;12.80;10.40;;;10.30;99.90;;;;;;4861501;29;20242;-85
2021/10/06 20:15:20;;;;;;;17.88;9.90;;;10.30;99.90;;;;;;4869487;29;20049;-84
2021/10/06 20:17:48;;;;;;;18.10;10.10;;;10.30;99.90;;;;;;4869679;29;20088;-85
2021/10/06 20:20:16;;;;;;;18.52;11.57;;;10.30;99.90;;;;;;4865225;29;24007;-83
2021/10/06 20:22:42;;;;;;;18.02;10.40;;;10.20;99.90;;;;;;4877928;29;20079;-84
